Waterford, CA

4:04 AM PDT on August 05, 2015 (GMT -0700)
Knights Ferry Hills | | Change Station
CLOSE
Current Station
Personal Weather Station
Location: Knights Ferry, CA
Elevation: 400 ft
Nearby Weather Stations

Elev 400 ft 37.83 °N, 120.73 °W | Updated 16 seconds ago

Clear
Clear
59.6 °F
Feels Like 59.6 °F
N
10.9
Wind Variable Wind from NNW
Gusts 12.0 mph

Today
High -- | Low -- °F
--% Chance of Precip.
Yesterday
High -- | Low -- °F
Precip. -- in
6:09 AM 8:07 PM
Waning Gibbous, 68% visible
Pressure 29.99 in
Visibility 10.0 miles
Clouds Clear
Dew Point 54 °F
Humidity 82%
Rainfall 0.00 in
Snow Depth Not available.
UV 0 out of 12
Pollen 6.10 out of 12
Air Quality Not available.
Flu Activity Not available.
METAR KMOD 051053Z AUTO 34007KT 10SM CLR 17/11 A2999 RMK AO2 SLP155 T01720111

More Conditions Fewer Conditions

Pressure 29.99 in
Visibility 10.0 miles
Clouds Clear
Dew Point 54 °F
Humidity 82%
Rainfall 0.00 in
Snow Depth Not available.
UV 0 out of 12
Pollen 6.10 out of 12
Air Quality Not available.
Flu Activity Not available.
METAR KMOD 051053Z AUTO 34007KT 10SM CLR 17/11 A2999 RMK AO2 SLP155 T01720111

More Conditions Fewer Conditions

10-Day Weather Forecast

×

Almanac

Astronomy

Aug. 05, 2015 Rise Set
Actual Time
Civil Twilight
Nautical Twilight
Astronomical Twilight
Moon
Length of Visible Light
Length of Day
Tomorrow will be .
, % of the Moon is Illuminated

Today's Extremes

State Highs State Lows

Community

WunderPhotos

Upload Photos

1,844,125 photos uploaded!

WunderBlogs® & News

Nearby

Air Quality

  Air Quality AQ Index Pollutant
Not available.

Snow Depth

Station Depth Elevation

Earthquake Activity

City Distance Mag. Time & Date
Minimum magnitude displayed is 2.5.

Coastal Water Temperatures

Place Temperature

Stations

Nearby Weather Stations

Station Location Temp. Windchill Dew Point Humidity Wind Precip. Elev Updated Type